createdAt,value
2023-03-28T00:00:19.757Z,73.48
2023-03-28T00:02:52.618Z,73.70
2023-03-28T00:05:25.522Z,73.58
2023-03-28T00:08:00.282Z,74.35
2023-03-28T00:10:33.248Z,74.83
2023-03-28T00:13:06.179Z,74.96
2023-03-28T00:15:40.342Z,75.50
2023-03-28T00:18:13.355Z,76.14
2023-03-28T00:20:46.085Z,76.12
2023-03-28T00:23:20.528Z,76.20
2023-03-28T00:25:53.252Z,76.33
2023-03-28T00:28:26.187Z,75.63
2023-03-28T00:31:03.228Z,75.67
2023-03-28T00:33:36.198Z,76.20
2023-03-28T00:36:10.364Z,76.30
2023-03-28T00:38:44.725Z,76.15
2023-03-28T00:41:18.573Z,75.59
2023-03-28T00:43:52.527Z,75.57
2023-03-28T00:46:27.801Z,75.43
2023-03-28T00:49:03.594Z,75.54
2023-03-28T00:51:38.407Z,75.90
2023-03-28T00:54:14.480Z,75.67
2023-03-28T00:56:49.018Z,74.89
2023-03-28T00:59:23.958Z,74.71
2023-03-28T01:01:56.853Z,75.24
2023-03-28T01:04:36.382Z,74.66
2023-03-28T01:07:09.212Z,74.65
2023-03-28T01:09:43.605Z,74.55
2023-03-28T01:12:16.914Z,74.23
2023-03-28T01:14:49.985Z,74.25
2023-03-28T01:17:22.860Z,74.76
2023-03-28T01:20:04.202Z,74.84
2023-03-28T01:22:56.961Z,75.02
2023-03-28T01:25:52.379Z,75.13
2023-03-28T01:28:34.209Z,75.86
2023-03-28T01:31:22.704Z,75.75
2023-03-28T01:34:16.449Z,75.22
2023-03-28T01:37:01.702Z,75.97
2023-03-28T01:39:42.403Z,75.85
2023-03-28T01:42:21.450Z,75.86
2023-03-28T01:44:59.677Z,76.21
2023-03-28T01:47:36.828Z,76.64
2023-03-28T01:50:13.962Z,76.79
2023-03-28T01:52:51.273Z,76.63
2023-03-28T01:55:25.464Z,77.21
2023-03-28T01:58:03.335Z,77.17
2023-03-28T02:00:38.566Z,76.38
2023-03-28T02:03:15.176Z,76.75
2023-03-28T02:05:49.973Z,77.16
2023-03-28T02:08:26.355Z,77.15
2023-03-28T02:10:59.830Z,77.24
2023-03-28T02:13:34.824Z,77.25
2023-03-28T02:16:09.155Z,76.47
2023-03-28T02:18:44.920Z,76.51
2023-03-28T02:21:19.818Z,76.46
2023-03-28T02:23:55.056Z,76.63
2023-03-28T02:26:28.410Z,76.51
2023-03-28T02:29:01.590Z,76.45
2023-03-28T02:31:35.109Z,76.32
2023-03-28T02:34:08.077Z,76.50
2023-03-28T02:36:47.852Z,76.09
2023-03-28T02:39:30.150Z,76.44
2023-03-28T02:42:08.365Z,76.31
2023-03-28T02:44:59.948Z,76.26
2023-03-28T02:47:35.361Z,76.06
2023-03-28T02:50:18.941Z,75.94
2023-03-28T02:52:56.036Z,76.10
2023-03-28T02:55:34.469Z,76.06
2023-03-28T02:58:10.447Z,76.03
2023-03-28T03:00:43.567Z,75.02
2023-03-28T03:03:17.564Z,74.91
2023-03-28T03:05:50.259Z,75.00
2023-03-28T03:08:22.987Z,75.20
2023-03-28T03:10:57.191Z,74.86
2023-03-28T03:13:29.993Z,75.54
2023-03-28T03:16:03.459Z,74.93
2023-03-28T03:18:37.040Z,74.69
2023-03-28T03:21:10.949Z,74.87
2023-03-28T03:23:44.002Z,74.70
2023-03-28T03:26:18.329Z,74.97
2023-03-28T03:28:51.160Z,74.89
2023-03-28T03:31:24.485Z,75.34
2023-03-28T03:33:57.274Z,75.30
2023-03-28T03:36:31.997Z,74.72
2023-03-28T03:39:04.790Z,74.45
2023-03-28T03:41:39.107Z,74.09
2023-03-28T03:44:11.818Z,73.87
2023-03-28T03:46:44.848Z,73.73
2023-03-28T03:49:17.584Z,73.14
2023-03-28T03:51:50.310Z,72.40
2023-03-28T03:54:23.212Z,72.80
2023-03-28T03:56:57.467Z,71.99
2023-03-28T03:59:30.266Z,72.29
2023-03-28T04:02:03.351Z,71.84
2023-03-28T04:04:37.103Z,71.84
2023-03-28T04:07:09.938Z,71.47
2023-03-28T04:09:42.712Z,71.43
2023-03-28T04:12:17.257Z,71.32
2023-03-28T04:14:49.993Z,71.53
2023-03-28T04:17:23.553Z,71.85
2023-03-28T04:19:56.269Z,71.43
2023-03-28T04:22:30.087Z,71.92
2023-03-28T04:25:03.077Z,71.67
2023-03-28T04:27:37.367Z,71.42
2023-03-28T04:30:11.577Z,71.41
2023-03-28T04:32:44.664Z,71.64
2023-03-28T04:35:17.666Z,71.58
2023-03-28T04:37:50.534Z,71.71
2023-03-28T04:40:24.738Z,71.68
2023-03-28T04:42:59.095Z,71.63
2023-03-28T04:45:31.887Z,71.65
2023-03-28T04:48:04.844Z,71.64
2023-03-28T04:50:37.676Z,71.51
2023-03-28T04:53:10.932Z,71.67
2023-03-28T04:55:49.087Z,71.84
2023-03-28T04:58:24.521Z,71.97
2023-03-28T05:00:57.366Z,71.81
2023-03-28T05:03:30.247Z,71.83
2023-03-28T05:06:03.111Z,72.01
2023-03-28T05:08:36.199Z,71.89
2023-03-28T05:11:08.984Z,72.15
2023-03-28T05:13:43.332Z,72.02
2023-03-28T05:16:16.052Z,71.90
2023-03-28T05:18:48.896Z,72.14
2023-03-28T05:21:21.703Z,71.98
2023-03-28T05:23:54.486Z,72.27
2023-03-28T05:26:28.298Z,72.16
2023-03-28T05:29:02.501Z,72.32
2023-03-28T05:31:35.292Z,72.38
2023-03-28T05:34:08.396Z,72.41
2023-03-28T05:36:41.101Z,72.57
2023-03-28T05:39:15.020Z,72.42
2023-03-28T05:41:48.084Z,72.60
2023-03-28T05:44:22.299Z,72.77
2023-03-28T05:46:55.520Z,72.89
2023-03-28T05:49:28.403Z,72.78
2023-03-28T05:52:01.238Z,72.84
2023-03-28T05:54:34.168Z,73.08
2023-03-28T05:57:06.956Z,73.11
2023-03-28T05:59:45.486Z,73.28
2023-03-28T06:02:19.114Z,73.22
2023-03-28T06:04:53.989Z,73.79
2023-03-28T06:07:39.329Z,73.91
2023-03-28T06:10:15.729Z,74.36
2023-03-28T06:12:48.375Z,74.91
2023-03-28T06:15:23.147Z,75.29
2023-03-28T06:17:56.217Z,75.63
2023-03-28T06:20:29.173Z,75.72
2023-03-28T06:23:04.037Z,76.26
2023-03-28T06:25:38.717Z,76.63
2023-03-28T06:28:11.761Z,76.55
2023-03-28T06:30:48.579Z,77.02
2023-03-28T06:33:21.399Z,76.84
2023-03-28T06:35:55.404Z,76.98
2023-03-28T06:38:28.275Z,77.32
2023-03-28T06:41:01.294Z,77.33
2023-03-28T06:43:34.158Z,77.55
2023-03-28T06:46:09.618Z,77.42
2023-03-28T06:48:42.325Z,77.67
2023-03-28T06:51:15.351Z,77.60
2023-03-28T06:53:48.467Z,77.56
2023-03-28T06:56:21.250Z,77.64
2023-03-28T06:58:54.090Z,78.04
2023-03-28T07:01:28.282Z,77.66
2023-03-28T07:04:02.241Z,78.12
2023-03-28T07:06:35.523Z,78.09
2023-03-28T07:09:08.341Z,78.11
2023-03-28T07:11:41.349Z,77.60
2023-03-28T07:14:14.430Z,77.67
2023-03-28T07:16:48.672Z,77.58
2023-03-28T07:19:22.426Z,78.28
2023-03-28T07:21:55.274Z,78.24
2023-03-28T07:24:27.992Z,77.94
2023-03-28T07:27:14.120Z,78.24
2023-03-28T07:29:48.909Z,77.88
2023-03-28T07:32:23.673Z,77.58
2023-03-28T07:34:56.565Z,77.47
2023-03-28T07:37:29.371Z,77.11
2023-03-28T07:40:02.263Z,77.38
2023-03-28T07:42:35.050Z,77.14
2023-03-28T07:45:08.435Z,77.38
2023-03-28T07:47:42.951Z,77.25
2023-03-28T07:50:15.870Z,77.36
2023-03-28T07:52:48.952Z,77.62
2023-03-28T07:55:21.956Z,78.29
2023-03-28T07:57:55.684Z,78.30
2023-03-28T08:00:28.404Z,78.02
2023-03-28T08:03:02.650Z,78.21
2023-03-28T08:05:37.862Z,78.27
2023-03-28T08:08:10.826Z,77.95
2023-03-28T08:10:45.650Z,78.51
2023-03-28T08:13:18.687Z,78.19
2023-03-28T08:15:53.697Z,78.16
2023-03-28T08:18:29.712Z,76.87
2023-03-28T08:21:05.111Z,77.55
2023-03-28T08:23:37.952Z,77.68
2023-03-28T08:26:10.731Z,77.63
2023-03-28T08:28:43.599Z,77.06
2023-03-28T08:31:17.368Z,76.68
2023-03-28T08:33:52.656Z,76.95
2023-03-28T08:36:27.209Z,76.49
2023-03-28T08:39:01.843Z,76.87
2023-03-28T08:41:47.049Z,76.02
2023-03-28T08:44:28.782Z,75.77
2023-03-28T08:47:04.869Z,73.29
2023-03-28T08:49:44.003Z,75.43
2023-03-28T08:52:18.773Z,75.44
2023-03-28T08:54:54.371Z,70.75
2023-03-28T08:57:29.404Z,70.39
2023-03-28T09:00:09.062Z,68.92
2023-03-28T09:02:42.355Z,71.11
2023-03-28T09:05:23.844Z,69.11
2023-03-28T09:08:01.094Z,61.41
2023-03-28T09:10:38.735Z,72.74
2023-03-28T09:13:17.641Z,72.83
2023-03-28T09:16:09.134Z,72.88
2023-03-28T09:19:03.689Z,72.34
2023-03-28T09:21:42.339Z,72.47
2023-03-28T09:24:22.920Z,72.91
2023-03-28T09:26:58.623Z,72.84
2023-03-28T09:29:32.768Z,73.97
2023-03-28T09:32:07.104Z,75.33
2023-03-28T09:34:40.877Z,72.93
2023-03-28T09:37:19.041Z,72.29
2023-03-28T09:39:53.843Z,73.73
2023-03-28T09:42:31.480Z,75.43
2023-03-28T09:45:08.914Z,72.70
2023-03-28T09:47:43.237Z,70.38
2023-03-28T09:50:17.265Z,71.67
2023-03-28T09:52:52.121Z,71.80
2023-03-28T09:55:26.038Z,70.76
2023-03-28T09:58:03.032Z,73.58
2023-03-28T10:00:36.660Z,72.88
2023-03-28T10:03:23.055Z,74.26
2023-03-28T10:05:56.205Z,73.75
2023-03-28T10:08:32.946Z,62.04
2023-03-28T10:11:07.076Z,69.49
2023-03-28T10:13:41.725Z,69.07
2023-03-28T10:16:15.741Z,67.81
2023-03-28T10:18:48.612Z,65.36
2023-03-28T10:21:23.267Z,70.94
2023-03-28T10:24:00.990Z,69.79
2023-03-28T10:26:33.935Z,69.53
2023-03-28T10:29:08.399Z,72.06
2023-03-28T10:31:41.988Z,69.54
2023-03-28T10:34:25.859Z,69.47
2023-03-28T10:36:58.599Z,70.64
2023-03-28T10:39:33.675Z,62.27
2023-03-28T10:42:06.389Z,71.14
2023-03-28T10:44:40.696Z,72.00
2023-03-28T10:47:16.035Z,72.30
2023-03-28T10:49:50.097Z,74.30
2023-03-28T10:52:25.393Z,72.77
2023-03-28T10:55:03.635Z,72.53
2023-03-28T10:57:41.526Z,74.65
2023-03-28T11:00:17.387Z,74.21
2023-03-28T11:02:53.263Z,74.88
2023-03-28T11:05:34.585Z,73.58
2023-03-28T11:08:19.400Z,72.51
2023-03-28T11:10:58.155Z,73.03
2023-03-28T11:13:34.912Z,73.23
2023-03-28T11:16:12.625Z,71.70
2023-03-28T11:18:54.128Z,67.11
2023-03-28T11:21:31.239Z,72.34
2023-03-28T11:24:11.204Z,74.61
2023-03-28T11:26:52.955Z,75.08
2023-03-28T11:29:42.576Z,74.24
2023-03-28T11:32:19.380Z,75.26
2023-03-28T11:34:59.337Z,73.21
2023-03-28T11:37:35.275Z,74.41
2023-03-28T11:40:15.465Z,77.04
2023-03-28T11:42:51.775Z,72.74
2023-03-28T11:45:42.028Z,74.86
2023-03-28T11:48:22.802Z,75.25
2023-03-28T11:50:59.943Z,78.70
2023-03-28T11:53:34.924Z,77.60
2023-03-28T11:56:12.488Z,78.05
2023-03-28T11:58:48.757Z,75.72
2023-03-28T12:01:22.982Z,75.34
2023-03-28T12:04:02.076Z,68.54
2023-03-28T12:06:37.447Z,71.91
2023-03-28T12:09:14.247Z,73.46
2023-03-28T12:11:52.217Z,71.02
2023-03-28T12:14:31.934Z,68.89
2023-03-28T12:19:42.878Z,70.16
2023-03-28T12:22:19.674Z,68.85
2023-03-28T12:24:58.132Z,69.68
2023-03-28T12:27:39.037Z,59.68
2023-03-28T12:30:21.394Z,70.39
2023-03-28T12:32:59.759Z,68.84
2023-03-28T12:35:36.608Z,70.47
2023-03-28T12:38:20.070Z,69.05
2023-03-28T12:40:55.524Z,72.15
2023-03-28T12:43:30.036Z,72.67
2023-03-28T12:46:07.473Z,71.92
2023-03-28T12:48:42.125Z,73.13
2023-03-28T12:51:16.830Z,73.60
2023-03-28T12:54:01.633Z,60.73
2023-03-28T12:56:34.629Z,71.47
2023-03-28T12:59:36.641Z,74.71
2023-03-28T13:02:15.117Z,75.20
2023-03-28T13:04:53.366Z,75.18
2023-03-28T13:07:29.882Z,76.49
2023-03-28T13:10:06.402Z,75.36
2023-03-28T13:12:48.432Z,76.45
2023-03-28T13:15:29.198Z,76.41
2023-03-28T13:18:21.379Z,74.98
2023-03-28T13:20:56.696Z,75.41
2023-03-28T13:23:34.547Z,75.86
2023-03-28T13:26:07.966Z,74.27
2023-03-28T13:28:44.457Z,76.20
2023-03-28T13:31:21.599Z,75.59
2023-03-28T13:33:55.375Z,76.30
2023-03-28T13:36:31.857Z,76.74
2023-03-28T13:39:09.485Z,78.15
2023-03-28T13:41:56.117Z,73.34
2023-03-28T13:44:32.208Z,72.19
2023-03-28T13:47:05.880Z,68.94
2023-03-28T13:49:44.348Z,65.16
2023-03-28T13:52:19.963Z,66.28
2023-03-28T13:54:55.124Z,63.07
2023-03-28T13:57:28.294Z,64.70
2023-03-28T14:00:02.598Z,61.49
2023-03-28T14:02:38.017Z,62.83
2023-03-28T14:05:15.492Z,67.27
2023-03-28T14:07:50.300Z,68.68
2023-03-28T14:10:28.958Z,58.10
2023-03-28T14:13:03.792Z,68.64
2023-03-28T14:15:39.470Z,67.06
2023-03-28T14:18:15.798Z,72.82
2023-03-28T14:20:48.704Z,72.73
2023-03-28T14:23:28.474Z,68.44
2023-03-28T14:26:01.749Z,73.48
2023-03-28T14:28:34.590Z,70.68
2023-03-28T14:31:07.621Z,65.28
2023-03-28T14:33:41.948Z,74.10
2023-03-28T14:36:21.160Z,71.21
2023-03-28T14:38:55.247Z,73.13
2023-03-28T14:41:29.939Z,70.99
2023-03-28T14:44:04.145Z,69.31
2023-03-28T14:46:36.923Z,67.64
2023-03-28T14:49:14.783Z,62.19
2023-03-28T14:51:48.704Z,68.03
2023-03-28T14:54:24.968Z,67.85
2023-03-28T14:56:59.137Z,69.31
2023-03-28T14:59:37.146Z,66.92
2023-03-28T15:02:17.064Z,67.22
2023-03-28T15:04:51.238Z,60.16
2023-03-28T15:07:28.137Z,66.34
2023-03-28T15:10:11.003Z,68.83
2023-03-28T15:12:46.494Z,67.79
2023-03-28T15:15:21.781Z,67.23
2023-03-28T15:17:56.563Z,63.29
2023-03-28T15:20:31.984Z,68.86
2023-03-28T15:23:06.961Z,64.36
2023-03-28T15:25:41.302Z,64.63
2023-03-28T15:28:16.372Z,66.91
2023-03-28T15:30:50.894Z,68.25
2023-03-28T15:33:25.000Z,63.27
2023-03-28T15:36:05.825Z,67.52
2023-03-28T15:38:39.469Z,72.67
2023-03-28T15:41:21.758Z,71.06
2023-03-28T15:43:58.785Z,72.55
2023-03-28T15:46:32.528Z,72.44
2023-03-28T15:49:06.978Z,71.08
2023-03-28T15:51:49.869Z,73.56
2023-03-28T15:54:31.497Z,70.45
2023-03-28T15:57:07.377Z,69.16
2023-03-28T15:59:42.637Z,70.41
2023-03-28T16:02:35.285Z,70.59
2023-03-28T16:05:11.746Z,69.54
2023-03-28T16:07:48.764Z,69.32
2023-03-28T16:10:23.093Z,69.65
2023-03-28T16:12:57.607Z,69.13
2023-03-28T16:15:31.541Z,69.67
2023-03-28T16:18:04.301Z,70.14
2023-03-28T16:20:37.289Z,72.73
2023-03-28T16:23:11.116Z,69.60
2023-03-28T16:25:44.104Z,68.98
2023-03-28T16:28:19.337Z,68.50
2023-03-28T16:30:53.336Z,68.76
2023-03-28T16:33:26.087Z,69.80
2023-03-28T16:35:59.520Z,69.27
2023-03-28T16:38:32.449Z,70.01
2023-03-28T16:41:05.838Z,69.64
2023-03-28T16:43:40.469Z,69.28
2023-03-28T16:46:13.229Z,68.93
2023-03-28T16:48:45.932Z,69.61
2023-03-28T16:51:18.767Z,69.26
2023-03-28T16:53:51.526Z,69.20
2023-03-28T16:56:26.962Z,69.50
2023-03-28T16:59:01.044Z,69.43
2023-03-28T17:01:33.820Z,70.05
2023-03-28T17:04:06.990Z,70.60
2023-03-28T17:06:39.739Z,70.53
2023-03-28T17:09:12.496Z,70.35
2023-03-28T17:11:45.289Z,71.00
2023-03-28T17:14:19.366Z,70.66
2023-03-28T17:16:52.135Z,69.90
2023-03-28T17:19:24.800Z,70.04
2023-03-28T17:21:57.927Z,69.80
2023-03-28T17:24:31.466Z,69.83
2023-03-28T17:27:04.363Z,69.60
2023-03-28T17:29:38.721Z,70.38
2023-03-28T17:32:11.742Z,70.14
2023-03-28T17:34:44.567Z,70.36
2023-03-28T17:37:17.469Z,70.38
2023-03-28T17:39:50.198Z,70.14
2023-03-28T17:42:23.221Z,70.65
2023-03-28T17:44:58.421Z,70.86
2023-03-28T17:47:31.620Z,70.68
2023-03-28T17:50:04.683Z,70.86
2023-03-28T17:52:37.874Z,71.16
2023-03-28T17:55:10.801Z,71.43
2023-03-28T17:57:43.530Z,71.21
2023-03-28T18:00:18.321Z,71.23
2023-03-28T18:02:51.834Z,71.79
2023-03-28T18:05:24.622Z,71.59
2023-03-28T18:07:57.388Z,71.94
2023-03-28T18:10:30.122Z,71.95
2023-03-28T18:13:02.818Z,71.69
2023-03-28T18:15:40.789Z,72.29
2023-03-28T18:18:13.930Z,72.78
2023-03-28T18:20:46.882Z,72.29
2023-03-28T18:23:19.767Z,72.13
2023-03-28T18:25:53.198Z,71.76
2023-03-28T18:28:26.328Z,71.85
2023-03-28T18:31:08.844Z,72.59
2023-03-28T18:33:43.008Z,72.60
2023-03-28T18:36:15.806Z,72.53
2023-03-28T18:38:48.559Z,72.24
2023-03-28T18:41:22.364Z,72.15
2023-03-28T18:43:55.723Z,72.42
2023-03-28T18:46:30.443Z,72.13
2023-03-28T18:49:03.319Z,71.83
2023-03-28T18:51:36.677Z,71.54
2023-03-28T18:54:09.354Z,71.92
2023-03-28T18:56:42.187Z,71.96
2023-03-28T18:59:15.067Z,71.46
2023-03-28T19:01:51.575Z,72.06
2023-03-28T19:04:26.045Z,71.95
2023-03-28T19:06:58.829Z,72.41
2023-03-28T19:09:31.559Z,72.34
2023-03-28T19:12:04.282Z,72.68
2023-03-28T19:14:37.138Z,72.84
2023-03-28T19:17:11.297Z,72.52
2023-03-28T19:19:44.060Z,72.78
2023-03-28T19:22:16.721Z,72.14
2023-03-28T19:24:49.484Z,71.97
2023-03-28T19:27:22.166Z,72.43
2023-03-28T19:29:54.860Z,72.52
2023-03-28T19:32:30.639Z,72.82
2023-03-28T19:35:03.811Z,72.62
2023-03-28T19:37:36.789Z,72.82
2023-03-28T19:40:10.920Z,72.66
2023-03-28T19:42:44.202Z,73.14
2023-03-28T19:45:17.382Z,72.59
2023-03-28T19:47:51.843Z,72.81
2023-03-28T19:50:24.674Z,72.61
2023-03-28T19:52:57.373Z,72.53
2023-03-28T19:55:30.169Z,72.62
2023-03-28T19:58:04.948Z,72.83
2023-03-28T20:00:37.643Z,72.75
2023-03-28T20:03:11.728Z,72.51
2023-03-28T20:05:44.617Z,72.05
2023-03-28T20:08:18.364Z,72.37
2023-03-28T20:10:52.775Z,72.51
2023-03-28T20:13:25.742Z,72.22
2023-03-28T20:15:58.563Z,72.59
2023-03-28T20:18:33.608Z,72.64
2023-03-28T20:21:07.573Z,72.54
2023-03-28T20:23:40.406Z,72.62
2023-03-28T20:26:14.473Z,72.75
2023-03-28T20:28:50.081Z,72.65
2023-03-28T20:31:23.729Z,72.87
2023-03-28T20:33:57.759Z,73.22
2023-03-28T20:36:32.933Z,72.97
2023-03-28T20:39:06.100Z,73.17
2023-03-28T20:41:39.036Z,73.63
2023-03-28T20:44:15.184Z,72.80
2023-03-28T20:46:48.987Z,73.20
2023-03-28T20:49:23.110Z,73.18
2023-03-28T20:51:55.948Z,73.62
2023-03-28T20:54:28.714Z,73.87
2023-03-28T20:57:01.747Z,73.59
2023-03-28T20:59:34.762Z,73.33
2023-03-28T21:02:08.195Z,72.95
2023-03-28T21:04:43.379Z,73.44
2023-03-28T21:07:16.046Z,72.90
2023-03-28T21:09:48.794Z,73.54
2023-03-28T21:12:21.554Z,73.14
2023-03-28T21:14:55.429Z,73.24
2023-03-28T21:17:29.152Z,73.34
2023-03-28T21:20:05.415Z,73.32
2023-03-28T21:22:38.944Z,73.31
2023-03-28T21:25:12.004Z,73.71
2023-03-28T21:27:44.817Z,72.90
2023-03-28T21:30:18.930Z,73.69
2023-03-28T21:32:51.644Z,73.43
2023-03-28T21:35:25.819Z,74.21
2023-03-28T21:37:58.497Z,73.29
2023-03-28T21:40:31.194Z,73.84
2023-03-28T21:43:04.200Z,74.53
2023-03-28T21:45:37.238Z,74.45
2023-03-28T21:48:09.953Z,74.93
2023-03-28T21:50:49.614Z,74.84
2023-03-28T21:53:22.738Z,75.21
2023-03-28T21:55:56.347Z,74.79
2023-03-28T21:58:30.354Z,74.66
2023-03-28T22:01:04.042Z,75.25
2023-03-28T22:03:38.114Z,75.09
2023-03-28T22:06:12.288Z,75.19
2023-03-28T22:08:46.425Z,74.97
2023-03-28T22:11:20.150Z,75.54
2023-03-28T22:14:01.113Z,76.58
2023-03-28T22:16:34.989Z,76.40
2023-03-28T22:19:10.009Z,77.08
2023-03-28T22:21:44.590Z,77.48
2023-03-28T22:24:17.912Z,74.26
2023-03-28T22:26:50.717Z,76.55
2023-03-28T22:29:23.456Z,76.35
2023-03-28T22:31:56.858Z,77.42
2023-03-28T22:34:30.430Z,77.66
2023-03-28T22:37:04.550Z,77.69
2023-03-28T22:39:38.033Z,77.25
2023-03-28T22:42:11.823Z,77.54
2023-03-28T22:44:44.604Z,77.51
2023-03-28T22:47:18.085Z,77.19
2023-03-28T22:49:53.919Z,76.69
2023-03-28T22:52:31.635Z,76.81
2023-03-28T22:55:04.556Z,76.21
2023-03-28T22:57:37.561Z,77.26
2023-03-28T23:00:11.369Z,77.00
2023-03-28T23:02:44.079Z,76.96
2023-03-28T23:05:16.955Z,76.22
2023-03-28T23:07:52.790Z,75.80
2023-03-28T23:10:25.798Z,75.63
2023-03-28T23:12:58.591Z,76.45
2023-03-28T23:15:31.389Z,76.61
2023-03-28T23:18:04.628Z,75.77
2023-03-28T23:20:38.371Z,76.92
2023-03-28T23:23:12.766Z,76.35
2023-03-28T23:25:47.557Z,76.16
2023-03-28T23:28:20.441Z,76.89
2023-03-28T23:30:53.495Z,76.87
2023-03-28T23:33:26.219Z,75.84
2023-03-28T23:35:59.022Z,76.73
2023-03-28T23:38:33.134Z,76.61
2023-03-28T23:41:06.793Z,77.14
2023-03-28T23:43:39.573Z,77.09
2023-03-28T23:46:12.365Z,76.76
2023-03-28T23:48:45.264Z,76.80
2023-03-28T23:51:18.611Z,76.32
2023-03-28T23:53:52.770Z,76.43
2023-03-28T23:56:25.573Z,76.21
2023-03-28T23:58:58.341Z,75.36
